KBTL/BTL METAR and TAF weather

Enter ICAO airport designator
Station Type Date Time Source
KBTL METAR 2019/02/23 02:53 UTC NOAA

KBTL 230253Z 11005KT 10SM CLR 00/M06 A3038 RMK AO2 SLP300 T00001056 50000


Station Type Date Time Source
KBTL Decoded METAR 2019/02/23 02:53 UTC NOAA

W.K.KELLOGG REGIONAL AIRPORT, MI, United States (KBTL) 42-18N 085-15W 290M
Feb 22, 2019 - 09:53 PM EST / 2019.02.23 0253 UTC
Wind: from the ESE (110 degrees) at 6 MPH (5 KT):0
Visibility: 10 mile(s):0
Sky conditions: clear
Temperature: 32.0 F (0.0 C)
Windchill: 26 F (-3 C):1
Dew Point: 21.9 F (-5.6 C)
Relative Humidity: 65%
Pressure (altimeter): 30.38 in. Hg (1028 hPa)
Pressure tendency: 0.00 inches (0.0 hPa) higher than three hours ago
ob: KBTL 230253Z 11005KT 10SM CLR 00/M06 A3038 RMK AO2 SLP300 T00001056 50000
cycle: 3

Station Type Date Time Source
KBTL TAF 2019/02/22 18:33 UTC NOAA

TAF KBTL 221730Z 2218/2318 00000KT P6SM SCT200
FM230100 08005KT P6SM SCT150
FM230800 09006KT P6SM OVC080
FM231500 09011KT 5SM BR OVC040


Example: see airport list